Time;durP1;ratioP1;P1;durP2;ratioP2;P2;SDS_P1;SDS_P2;PMS_P1;PMS_P2;Temp;Humidity;BMP_temperature;BMP_pressure;BME280_temperature;BME280_humidity;BME280_pressure;Samples;Min_cycle;Max_cycle;Signal;HPM_P1;HPM_P2
2023/01/24 00:01:56;;;;;;;31.10;16.35;;;;;;;7.24;100.00;97590.50;5031052;28;20631;-59
2023/01/24 00:04:26;;;;;;;31.55;16.42;;;;;;;7.14;100.00;97595.47;5022657;28;20084;-61
2023/01/24 00:06:54;;;;;;;26.80;13.65;;;;;;;7.28;100.00;97591.97;5028550;28;20065;-62
2023/01/24 00:09:23;;;;;;;25.80;13.45;;;;;;;7.14;100.00;97596.31;5032649;28;20088;-61
2023/01/24 00:11:51;;;;;;;21.70;11.88;;;;;;;6.80;100.00;97599.31;5033302;28;20089;-61
2023/01/24 00:14:19;;;;;;;29.15;16.13;;;;;;;6.51;100.00;97598.47;5029061;28;20107;-52
2023/01/24 00:16:47;;;;;;;26.33;13.30;;;;;;;7.11;100.00;97599.13;5026025;28;20085;-59
2023/01/24 00:19:16;;;;;;;27.92;14.60;;;;;;;7.00;100.00;97606.81;5027223;28;20095;-59
2023/01/24 00:21:45;;;;;;;26.80;14.27;;;;;;;6.89;100.00;97598.78;5031029;28;20077;-58
2023/01/24 00:24:13;;;;;;;31.07;17.07;;;;;;;6.75;100.00;97604.84;5029152;28;20498;-57
2023/01/24 00:26:42;;;;;;;27.73;15.43;;;;;;;6.40;100.00;97609.56;5023038;28;20081;-66
2023/01/24 00:29:10;;;;;;;29.33;17.77;;;;;;;5.93;100.00;97611.38;5035465;28;20091;-57
2023/01/24 00:31:38;;;;;;;31.35;15.82;;;;;;;6.90;100.00;97601.28;5024980;28;20085;-57
2023/01/24 00:34:07;;;;;;;30.08;15.68;;;;;;;7.23;100.00;97594.91;5029406;28;20081;-57
2023/01/24 00:36:35;;;;;;;31.45;16.60;;;;;;;7.00;100.00;97605.97;5028952;28;20085;-60
2023/01/24 00:39:05;;;;;;;25.60;14.85;;;;;;;6.84;100.00;97604.28;5031020;28;20736;-59
2023/01/24 00:41:33;;;;;;;31.20;15.63;;;;;;;7.22;100.00;97598.44;5027783;28;20560;-53
2023/01/24 00:44:01;;;;;;;31.95;16.80;;;;;;;6.53;100.00;97607.91;5030846;28;20554;-56
2023/01/24 00:46:30;;;;;;;32.25;16.75;;;;;;;6.79;100.00;97605.50;5028754;28;20707;-57
2023/01/24 00:48:59;;;;;;;31.40;17.27;;;;;;;6.70;100.00;97598.19;5024439;28;20089;-58
2023/01/24 00:51:28;;;;;;;29.95;17.40;;;;;;;6.14;100.00;97611.09;5033741;28;20083;-64
2023/01/24 00:53:56;;;;;;;30.35;13.50;;;;;;;6.46;100.00;97606.56;5030242;28;20081;-62
2023/01/24 00:56:26;;;;;;;33.78;17.27;;;;;;;6.28;100.00;97607.66;5031180;28;20072;-60
2023/01/24 00:58:55;;;;;;;29.05;16.48;;;;;;;6.58;100.00;97624.22;5036949;28;20080;-61
2023/01/24 01:01:23;;;;;;;32.30;16.70;;;;;;;6.76;100.00;97617.00;5029061;28;20104;-59
2023/01/24 01:03:55;;;;;;;33.20;18.48;;;;;;;6.88;100.00;97618.91;5025556;28;20517;-60
2023/01/24 01:06:25;;;;;;;30.42;17.58;;;;;;;7.00;100.00;97619.94;5028367;28;20077;-59
2023/01/24 01:08:53;;;;;;;35.73;19.10;;;;;;;6.27;100.00;97621.72;5025711;28;20067;-58
2023/01/24 01:11:22;;;;;;;31.20;16.77;;;;;;;6.74;100.00;97623.28;5031274;28;20152;-60
2023/01/24 01:13:55;;;;;;;32.22;17.40;;;;;;;6.70;100.00;97621.78;5026686;28;20619;-59
2023/01/24 01:16:24;;;;;;;34.40;18.38;;;;;;;6.44;100.00;97629.44;5031246;28;20072;-58
2023/01/24 01:18:55;;;;;;;36.38;19.58;;;;;;;6.32;100.00;97619.66;5022662;28;20069;-59
2023/01/24 01:21:23;;;;;;;33.67;17.23;;;;;;;6.23;100.00;97628.91;5030518;28;20311;-58
2023/01/24 01:23:52;;;;;;;34.63;18.63;;;;;;;6.89;100.00;97622.38;5032465;28;20073;-61
2023/01/24 01:26:22;;;;;;;34.00;17.85;;;;;;;6.82;100.00;97628.94;5028542;28;20068;-59
2023/01/24 01:28:52;;;;;;;37.70;20.67;;;;;;;5.88;100.00;97623.88;5033780;28;20826;-59
2023/01/24 01:31:20;;;;;;;35.60;18.90;;;;;;;6.28;100.00;97618.16;5027191;28;20072;-61
2023/01/24 01:33:48;;;;;;;35.50;19.67;;;;;;;6.07;100.00;97626.31;5028094;28;20057;-61
2023/01/24 01:36:17;;;;;;;39.38;19.05;;;;;;;6.65;100.00;97622.91;5032031;28;20069;-61
2023/01/24 01:38:45;;;;;;;36.00;18.92;;;;;;;6.62;100.00;97625.72;5032321;28;20167;-57
2023/01/24 01:41:15;;;;;;;39.35;19.13;;;;;;;6.69;100.00;97628.81;5027408;28;20079;-58
2023/01/24 01:46:29;;;;;;;35.00;17.48;;;;;;;6.66;100.00;97615.88;5027792;28;20073;-59
2023/01/24 01:49:00;;;;;;;37.50;18.98;;;;;;;6.62;100.00;97623.09;5025778;28;20076;-60
2023/01/24 01:51:33;;;;;;;37.75;19.35;;;;;;;6.29;100.00;97622.44;5025204;28;20104;-59
2023/01/24 01:54:05;;;;;;;35.78;16.88;;;;;;;5.99;100.00;97620.69;5039177;28;20074;-59
2023/01/24 01:56:35;;;;;;;32.28;16.00;;;;;;;6.39;100.00;97626.22;5025109;28;20064;-61
2023/01/24 01:59:08;;;;;;;41.40;22.08;;;;;;;5.93;100.00;97627.09;5049670;28;20079;-57
2023/01/24 02:01:38;;;;;;;40.45;18.88;;;;;;;5.92;100.00;97616.69;5027664;28;20069;-57
2023/01/24 02:04:08;;;;;;;38.35;18.73;;;;;;;6.40;100.00;97628.75;5035259;28;20073;-55
2023/01/24 02:06:50;;;;;;;41.10;20.38;;;;;;;5.99;100.00;97631.16;5025242;28;20069;-59
2023/01/24 02:09:21;;;;;;;36.65;18.63;;;;;;;6.25;100.00;97629.66;5031715;28;20084;-60
2023/01/24 02:11:50;;;;;;;25.70;13.50;;;;;;;6.45;100.00;97623.25;5026266;28;20085;-55
2023/01/24 02:17:07;;;;;;;36.45;19.00;;;;;;;6.57;100.00;97624.28;5024302;28;20172;-59
2023/01/24 02:19:46;;;;;;;30.30;15.90;;;;;;;6.61;100.00;97626.66;5030447;28;20085;-60
2023/01/24 02:22:16;;;;;;;32.13;17.08;;;;;;;6.69;100.00;97623.56;5023403;28;20076;-59
2023/01/24 02:24:50;;;;;;;31.35;15.85;;;;;;;6.10;100.00;97622.69;5028934;28;20080;-57
2023/01/24 02:27:20;;;;;;;40.53;19.98;;;;;;;6.40;100.00;97623.53;5023634;28;20084;-59
2023/01/24 02:29:49;;;;;;;38.37;19.83;;;;;;;6.41;100.00;97619.13;5030266;28;20084;-60
2023/01/24 02:32:18;;;;;;;38.60;21.15;;;;;;;6.22;100.00;97618.50;5030175;28;20088;-59
2023/01/24 02:34:46;;;;;;;38.15;19.15;;;;;;;6.87;100.00;97621.59;5025308;28;20181;-61
2023/01/24 02:37:15;;;;;;;36.40;18.15;;;;;;;6.40;100.00;97622.66;5025366;28;20080;-58
2023/01/24 02:39:47;;;;;;;40.63;20.33;;;;;;;6.62;100.00;97622.25;5018991;28;20485;-60
2023/01/24 02:42:16;;;;;;;40.05;19.70;;;;;;;6.51;100.00;97620.28;5027633;28;20084;-64
2023/01/24 02:44:51;;;;;;;32.65;17.20;;;;;;;6.74;100.00;97625.91;5029262;28;20139;-59
2023/01/24 02:47:19;;;;;;;30.23;15.15;;;;;;;6.51;100.00;97619.44;5024361;28;20068;-61
2023/01/24 02:49:47;;;;;;;35.40;17.90;;;;;;;6.74;100.00;97616.25;5032852;28;20429;-61
2023/01/24 02:55:02;;;;;;;38.17;18.60;;;;;;;6.57;100.00;97614.66;5029388;28;20088;-62
2023/01/24 03:00:17;;;;;;;39.10;21.00;;;;;;;6.15;100.00;97605.75;5029003;28;20076;-62
2023/01/24 03:02:45;;;;;;;36.22;19.23;;;;;;;6.44;100.00;97608.47;5027975;28;20422;-57
2023/01/24 03:05:14;;;;;;;29.33;15.23;;;;;;;6.52;100.00;97618.50;5026833;28;20081;-61
2023/01/24 03:07:44;;;;;;;35.45;19.17;;;;;;;6.49;100.00;97614.25;5022063;28;20068;-58
2023/01/24 03:10:14;;;;;;;35.08;18.80;;;;;;;6.53;100.00;97620.16;5033285;28;20085;-61
2023/01/24 03:34:52;;;;;;;34.95;15.88;;;;;;;6.62;100.00;97627.50;5031247;28;20079;-57
2023/01/24 03:40:08;;;;;;;34.22;17.98;;;;;;;6.90;100.00;97630.13;5031622;28;20120;-60
2023/01/24 03:42:47;;;;;;;37.70;18.10;;;;;;;6.92;100.00;97631.81;5031797;28;20107;-61
2023/01/24 03:45:17;;;;;;;40.38;18.92;;;;;;;6.77;100.00;97636.22;5029201;28;20077;-63
2023/01/24 03:47:54;;;;;;;42.78;19.15;;;;;;;7.12;100.00;97640.16;5033401;28;20076;-58
2023/01/24 03:53:10;;;;;;;43.65;20.05;;;;;;;6.87;100.00;97643.41;5025433;28;20088;-56
2023/01/24 03:55:39;;;;;;;37.28;19.02;;;;;;;6.66;100.00;97661.28;5030559;28;20078;-61
2023/01/24 03:58:08;;;;;;;37.30;18.80;;;;;;;7.11;100.00;97653.38;5027934;28;20080;-57
2023/01/24 04:00:38;;;;;;;31.15;16.13;;;;;;;7.43;100.00;97645.28;5027158;28;20073;-58
2023/01/24 04:03:08;;;;;;;36.33;18.77;;;;;;;7.01;100.00;97658.31;5033229;28;20073;-54
2023/01/24 04:05:37;;;;;;;36.47;18.30;;;;;;;6.91;100.00;97659.81;5031741;28;20457;-56
2023/01/24 04:08:06;;;;;;;28.95;15.77;;;;;;;7.34;100.00;97658.03;5027618;28;20453;-58
2023/01/24 04:10:35;;;;;;;38.38;19.33;;;;;;;7.01;100.00;97654.84;5028532;28;20144;-53
2023/01/24 04:13:03;;;;;;;37.38;18.95;;;;;;;7.10;100.00;97663.03;5030995;28;20081;-60
2023/01/24 04:15:32;;;;;;;37.30;19.02;;;;;;;7.06;100.00;97652.81;5029479;28;20318;-54
2023/01/24 04:18:02;;;;;;;35.60;16.20;;;;;;;7.21;100.00;97645.78;5034210;28;20084;-58
2023/01/24 04:20:34;;;;;;;38.27;20.07;;;;;;;7.37;100.00;97649.97;5020242;28;20076;-56
2023/01/24 04:23:03;;;;;;;36.08;19.67;;;;;;;6.94;100.00;97645.69;5028059;28;20115;-55
2023/01/24 04:25:31;;;;;;;33.45;17.42;;;;;;;6.74;100.00;97639.00;5028305;28;20088;-57
2023/01/24 04:28:00;;;;;;;32.80;17.25;;;;;;;6.64;100.00;97646.56;5037330;28;20068;-59
2023/01/24 04:30:28;;;;;;;30.88;17.48;;;;;;;7.02;100.00;97648.66;5030807;28;20442;-57
2023/01/24 04:32:57;;;;;;;34.45;17.58;;;;;;;7.35;100.00;97633.47;5028439;28;20076;-55
2023/01/24 04:35:27;;;;;;;35.60;17.13;;;;;;;6.61;100.00;97650.25;5031006;28;20065;-57
2023/01/24 04:38:00;;;;;;;32.10;16.77;;;;;;;6.99;100.00;97651.50;5027353;28;20079;-59
2023/01/24 04:40:28;;;;;;;37.03;16.98;;;;;;;6.31;100.00;97652.03;5028898;28;20073;-58
2023/01/24 04:42:57;;;;;;;31.17;16.17;;;;;;;6.74;100.00;97644.25;5046281;28;20088;-55
2023/01/24 04:45:26;;;;;;;35.08;18.30;;;;;;;6.79;100.00;97639.59;5039145;28;20085;-55
2023/01/24 04:47:54;;;;;;;30.98;17.35;;;;;;;6.81;100.00;97649.06;5025203;28;20081;-54
2023/01/24 04:50:23;;;;;;;32.88;17.23;;;;;;;6.93;100.00;97650.09;5030135;28;20077;-60
2023/01/24 04:52:51;;;;;;;33.72;19.25;;;;;;;6.40;100.00;97652.34;5029243;28;20524;-59
2023/01/24 04:55:21;;;;;;;32.45;16.88;;;;;;;7.09;100.00;97644.75;5026592;28;20065;-59
2023/01/24 04:57:50;;;;;;;36.63;18.13;;;;;;;6.90;100.00;97652.88;5024551;28;20078;-53
2023/01/24 05:00:18;;;;;;;28.75;15.48;;;;;;;6.73;100.00;97659.13;5023772;28;20072;-58
2023/01/24 05:02:47;;;;;;;33.25;16.63;;;;;;;6.80;100.00;97649.97;5025735;28;20305;-59
2023/01/24 05:05:15;;;;;;;35.15;17.88;;;;;;;6.38;100.00;97648.97;5028496;28;20069;-60
2023/01/24 05:07:44;;;;;;;33.65;16.25;;;;;;;6.84;100.00;97658.50;5030751;28;20473;-59
2023/01/24 05:10:12;;;;;;;29.85;16.90;;;;;;;6.62;100.00;97646.69;5031868;28;20064;-58
2023/01/24 05:12:42;;;;;;;32.63;16.67;;;;;;;6.52;100.00;97658.63;5028457;28;20076;-59
2023/01/24 05:15:10;;;;;;;31.13;17.47;;;;;;;6.36;100.00;97642.94;5028665;28;20080;-60
2023/01/24 05:17:39;;;;;;;28.95;16.48;;;;;;;6.29;100.00;97653.88;5022666;28;20494;-56
2023/01/24 05:20:08;;;;;;;30.38;16.42;;;;;;;6.29;100.00;97656.50;5020790;28;20083;-62
2023/01/24 05:22:37;;;;;;;32.17;16.08;;;;;;;6.80;100.00;97649.97;5024244;28;20525;-53
2023/01/24 05:25:06;;;;;;;29.52;15.70;;;;;;;6.56;100.00;97654.91;5027258;28;20061;-60
2023/01/24 05:27:34;;;;;;;25.02;13.77;;;;;;;6.79;100.00;97653.53;5026840;28;20068;-58
2023/01/24 05:30:06;;;;;;;29.88;15.63;;;;;;;6.86;100.00;97648.78;5037542;28;20140;-57
2023/01/24 05:32:34;;;;;;;25.85;13.90;;;;;;;6.81;100.00;97653.44;5024309;28;20049;-54
2023/01/24 05:35:03;;;;;;;26.48;13.80;;;;;;;7.05;100.00;97651.94;5029459;28;20077;-56
2023/01/24 05:37:31;;;;;;;28.20;15.82;;;;;;;6.66;100.00;97657.81;5016542;28;20081;-61
2023/01/24 05:39:59;;;;;;;28.20;14.65;;;;;;;6.32;100.00;97654.53;5020650;28;20085;-60
2023/01/24 05:42:28;;;;;;;27.98;14.88;;;;;;;6.49;100.00;97661.44;5022920;28;20504;-58
2023/01/24 05:44:56;;;;;;;31.13;17.38;;;;;;;6.62;100.00;97669.44;5028288;28;20100;-58
2023/01/24 05:47:26;;;;;;;28.70;16.08;;;;;;;6.41;100.00;97668.91;5019584;28;20085;-55
2023/01/24 05:49:54;;;;;;;29.27;14.93;;;;;;;6.68;100.00;97668.22;5021342;28;20073;-51
2023/01/24 05:52:22;;;;;;;28.73;15.05;;;;;;;6.78;100.00;97674.59;5019775;28;20081;-55
2023/01/24 05:54:51;;;;;;;31.35;16.25;;;;;;;6.40;100.00;97673.31;5023661;28;20564;-55
2023/01/24 05:57:20;;;;;;;29.15;14.80;;;;;;;6.17;100.00;97681.63;5018814;28;20484;-59
2023/01/24 05:59:48;;;;;;;28.45;16.17;;;;;;;6.49;100.00;97671.06;5022357;28;20084;-53
2023/01/24 06:02:18;;;;;;;25.77;13.80;;;;;;;7.18;100.00;97680.06;5022987;28;20089;-56
2023/01/24 06:04:48;;;;;;;28.25;14.73;;;;;;;7.14;100.00;97679.41;5018002;28;20084;-58
2023/01/24 06:07:16;;;;;;;26.93;14.17;;;;;;;6.74;100.00;97688.81;5025523;28;20604;-60
2023/01/24 06:09:44;;;;;;;29.77;15.45;;;;;;;6.41;100.00;97682.84;5017304;28;20077;-61
2023/01/24 06:12:12;;;;;;;28.50;15.27;;;;;;;6.37;100.00;97678.72;5020692;28;20089;-57
2023/01/24 06:14:41;;;;;;;32.30;15.52;;;;;;;6.72;100.00;97681.06;5027746;28;20084;-55
2023/01/24 06:17:09;;;;;;;24.85;13.55;;;;;;;6.37;100.00;97683.97;5024266;28;20089;-60
2023/01/24 06:19:38;;;;;;;30.05;15.90;;;;;;;6.26;100.00;97698.59;5020667;28;20076;-57
2023/01/24 06:22:16;;;;;;;30.60;16.90;;;;;;;6.56;100.00;97690.75;5027827;28;20687;-59
2023/01/24 06:24:45;;;;;;;30.40;16.25;;;;;;;6.46;100.00;97697.44;5022889;28;20077;-56
2023/01/24 06:27:14;;;;;;;29.65;16.15;;;;;;;6.71;100.00;97702.09;5021279;28;20480;-62
2023/01/24 06:29:42;;;;;;;31.35;16.67;;;;;;;6.28;100.00;97704.59;5025354;28;20085;-56
2023/01/24 06:32:22;;;;;;;30.48;14.65;;;;;;;7.09;100.00;97705.94;5018983;28;20516;-59
2023/01/24 06:35:06;;;;;;;29.13;15.52;;;;;;;7.07;100.00;97707.78;5021387;28;20089;-58
2023/01/24 06:37:38;;;;;;;26.27;13.63;;;;;;;6.82;100.00;97707.59;5024744;28;20077;-58
2023/01/24 06:40:10;;;;;;;27.35;15.13;;;;;;;6.90;100.00;97708.78;5021735;28;20096;-60
2023/01/24 06:42:39;;;;;;;28.38;13.05;;;;;;;6.77;100.00;97712.22;5022880;28;20806;-58
2023/01/24 06:45:09;;;;;;;27.50;14.95;;;;;;;6.87;100.00;97714.22;5019255;28;20093;-56
2023/01/24 06:47:38;;;;;;;29.80;15.70;;;;;;;6.95;100.00;97719.03;5024872;28;20513;-58
2023/01/24 06:50:07;;;;;;;28.10;13.93;;;;;;;7.31;100.00;97721.22;5025828;28;20490;-60
2023/01/24 06:52:37;;;;;;;26.45;15.32;;;;;;;6.86;100.00;97720.41;5023031;28;20088;-56
2023/01/24 06:55:06;;;;;;;27.10;15.33;;;;;;;6.95;100.00;97724.28;5030529;28;20567;-61
2023/01/24 06:57:35;;;;;;;27.63;14.18;;;;;;;7.02;100.00;97730.84;5028627;28;20081;-56
2023/01/24 07:00:03;;;;;;;30.05;15.55;;;;;;;6.45;100.00;97732.47;5023983;28;20084;-58
2023/01/24 07:02:32;;;;;;;30.38;15.05;;;;;;;6.48;100.00;97732.28;5026782;28;20080;-56
2023/01/24 07:05:00;;;;;;;26.80;14.70;;;;;;;7.32;100.00;97727.28;5029700;28;20096;-60
2023/01/24 07:07:28;;;;;;;26.60;14.10;;;;;;;6.38;100.00;97732.81;5017027;28;20513;-60
2023/01/24 07:09:58;;;;;;;30.52;14.98;;;;;;;7.08;100.00;97729.63;5027555;28;20557;-60
2023/01/24 07:12:26;;;;;;;25.10;13.73;;;;;;;7.11;100.00;97732.91;5024367;28;20081;-53
2023/01/24 07:14:55;;;;;;;28.70;15.23;;;;;;;7.03;100.00;97734.31;5028398;28;20507;-58
2023/01/24 07:17:23;;;;;;;29.33;14.27;;;;;;;6.76;100.00;97732.38;5023935;28;23967;-58
2023/01/24 07:19:52;;;;;;;27.88;15.18;;;;;;;7.03;100.00;97731.69;5030553;28;20089;-57
2023/01/24 07:22:21;;;;;;;27.17;15.18;;;;;;;7.33;100.00;97737.72;5031401;28;20089;-58
2023/01/24 07:24:50;;;;;;;26.67;14.88;;;;;;;7.27;100.00;97738.06;5024832;28;20482;-61
2023/01/24 07:27:20;;;;;;;26.90;14.70;;;;;;;7.27;100.00;97742.50;5028966;28;20572;-58
2023/01/24 07:29:49;;;;;;;23.45;14.02;;;;;;;7.08;100.00;97750.59;5031405;28;20085;-61
2023/01/24 07:32:18;;;;;;;26.25;14.20;;;;;;;7.27;100.00;97751.19;5024219;28;20136;-58
2023/01/24 07:34:46;;;;;;;24.45;14.40;;;;;;;7.05;100.00;97738.50;5028655;28;20085;-57
2023/01/24 07:37:16;;;;;;;26.90;14.18;;;;;;;7.18;100.00;97748.28;5030592;28;20144;-59
2023/01/24 07:39:44;;;;;;;26.67;15.17;;;;;;;7.02;100.00;97748.34;5026881;28;20081;-58
2023/01/24 07:42:12;;;;;;;27.70;13.75;;;;;;;7.06;100.00;97755.13;5027261;28;20145;-60
2023/01/24 07:44:42;;;;;;;24.17;12.80;;;;;;;7.25;100.00;97754.84;5025563;28;20477;-61
2023/01/24 07:47:10;;;;;;;28.08;15.00;;;;;;;7.09;100.00;97757.56;5028515;28;20560;-59
2023/01/24 07:49:39;;;;;;;29.50;16.38;;;;;;;6.77;100.00;97760.25;5026384;28;20084;-61
2023/01/24 07:52:07;;;;;;;26.33;14.82;;;;;;;6.66;100.00;97766.13;5026683;28;20088;-60
2023/01/24 07:54:37;;;;;;;27.90;14.17;;;;;;;6.96;100.00;97761.84;5026813;28;20073;-59
2023/01/24 07:57:05;;;;;;;23.48;13.65;;;;;;;7.24;100.00;97764.50;5029020;28;20913;-61
2023/01/24 07:59:33;;;;;;;26.10;14.65;;;;;;;6.75;100.00;97772.63;5024521;28;20077;-58
2023/01/24 08:02:10;;;;;;;25.58;14.98;;;;;;;6.91;100.00;97769.94;5026147;28;20092;-62
2023/01/24 08:04:39;;;;;;;28.67;14.65;;;;;;;7.72;100.00;97767.72;5025590;28;20089;-53
2023/01/24 08:07:20;;;;;;;28.27;15.77;;;;;;;7.00;100.00;97774.66;5024241;28;20085;-58
2023/01/24 08:09:49;;;;;;;26.25;13.13;;;;;;;7.26;100.00;97777.50;5027405;28;20089;-60
2023/01/24 08:12:21;;;;;;;24.75;13.50;;;;;;;7.23;100.00;97775.09;5023524;28;20081;-59
2023/01/24 08:14:49;;;;;;;26.98;13.57;;;;;;;7.66;100.00;97773.31;5030050;28;20115;-58
2023/01/24 08:17:19;;;;;;;23.63;12.82;;;;;;;7.22;100.00;97776.84;5017628;28;20074;-55
2023/01/24 08:19:47;;;;;;;26.83;13.97;;;;;;;7.28;100.00;97789.63;5029496;28;20081;-59
2023/01/24 08:22:24;;;;;;;28.58;14.23;;;;;;;6.89;100.00;97791.03;5028179;28;20085;-60
2023/01/24 08:24:53;;;;;;;27.88;14.95;;;;;;;6.84;100.00;97785.19;5025818;28;20088;-56
2023/01/24 08:27:21;;;;;;;28.75;15.48;;;;;;;6.73;100.00;97792.84;5029379;28;20121;-58
2023/01/24 08:29:49;;;;;;;22.58;11.75;;;;;;;7.22;100.00;97782.09;5025348;28;20500;-59
2023/01/24 08:32:19;;;;;;;25.85;14.20;;;;;;;6.81;100.00;97795.88;5028463;28;20084;-54
2023/01/24 08:34:47;;;;;;;16.63;8.90;;;;;;;7.18;100.00;97791.09;5019826;28;20080;-58
2023/01/24 08:37:16;;;;;;;26.38;14.02;;;;;;;6.77;100.00;97791.72;5022987;28;20096;-56
2023/01/24 08:39:44;;;;;;;30.33;16.33;;;;;;;7.30;100.00;97792.16;5021353;28;20062;-61
2023/01/24 08:42:13;;;;;;;32.17;16.73;;;;;;;6.59;100.00;97790.16;5024586;28;20069;-60
2023/01/24 08:44:41;;;;;;;31.45;16.33;;;;;;;6.90;100.00;97791.88;5023037;28;20064;-58
2023/01/24 08:47:10;;;;;;;22.02;11.70;;;;;;;7.08;100.00;97790.78;5023668;28;20081;-56
2023/01/24 08:49:39;;;;;;;27.63;13.90;;;;;;;7.46;100.00;97798.16;5028052;28;20053;-58
2023/01/24 08:52:08;;;;;;;27.57;15.23;;;;;;;7.37;100.00;97793.47;5022528;28;20479;-61
2023/01/24 08:54:36;;;;;;;30.27;14.95;;;;;;;7.30;100.00;97800.88;5027041;28;20510;-59
2023/01/24 08:57:06;;;;;;;27.80;14.70;;;;;;;7.41;100.00;97797.59;5024369;28;20077;-57
2023/01/24 08:59:35;;;;;;;30.10;16.20;;;;;;;7.30;100.00;97798.25;5021451;28;20077;-53
2023/01/24 09:02:04;;;;;;;28.08;13.20;;;;;;;7.37;100.00;97798.72;5018810;28;20509;-60
2023/01/24 09:04:33;;;;;;;27.25;14.52;;;;;;;7.80;100.00;97798.75;5021163;28;20497;-59
2023/01/24 09:07:03;;;;;;;29.50;16.05;;;;;;;7.23;100.00;97802.19;5018960;28;20078;-59
2023/01/24 09:09:31;;;;;;;33.13;15.87;;;;;;;7.10;100.00;97799.41;5023469;28;20088;-59
2023/01/24 09:11:59;;;;;;;28.52;14.35;;;;;;;7.79;100.00;97805.78;5028424;28;20072;-60
2023/01/24 09:14:28;;;;;;;34.05;18.13;;;;;;;7.05;100.00;97806.69;5024500;28;20073;-56
2023/01/24 09:16:56;;;;;;;28.13;14.85;;;;;;;7.17;100.00;97810.41;5023042;28;20072;-61
2023/01/24 09:19:26;;;;;;;29.77;15.85;;;;;;;7.57;100.00;97814.13;5021074;28;20077;-60
2023/01/24 09:21:56;;;;;;;32.72;13.57;;;;;;;7.76;100.00;97816.47;5028508;28;20447;-60
2023/01/24 09:24:26;;;;;;;30.67;14.45;;;;;;;7.57;100.00;97823.75;5027986;28;20081;-60
2023/01/24 09:26:54;;;;;;;29.00;14.90;;;;;;;7.19;100.00;97812.91;5029122;28;20505;-60
2023/01/24 09:29:23;;;;;;;28.13;14.15;;;;;;;7.63;100.00;97814.69;5028418;28;20896;-60
2023/01/24 09:31:54;;;;;;;26.45;14.70;;;;;;;7.20;100.00;97822.50;5028845;28;20079;-56
2023/01/24 09:34:23;;;;;;;23.52;12.55;;;;;;;7.76;100.00;97816.47;5028279;28;20456;-55
2023/01/24 09:36:51;;;;;;;26.92;14.15;;;;;;;7.49;100.00;97826.00;5023805;28;20084;-60
2023/01/24 09:39:19;;;;;;;26.10;14.38;;;;;;;7.77;100.00;97825.19;5026025;28;20287;-59
2023/01/24 09:41:59;;;;;;;25.95;14.85;;;;;;;7.86;100.00;97822.00;5028712;28;20069;-55
2023/01/24 09:44:46;;;;;;;24.00;13.52;;;;;;;8.39;100.00;97822.25;5021548;28;20073;-59
2023/01/24 09:47:18;;;;;;;27.15;14.77;;;;;;;7.91;100.00;97825.19;5024276;28;20081;-54
2023/01/24 09:49:51;;;;;;;22.20;11.32;;;;;;;8.33;100.00;97826.94;5022703;28;20068;-61
2023/01/24 09:52:27;;;;;;;27.10;14.63;;;;;;;8.41;100.00;97820.38;5021890;28;20520;-58
2023/01/24 09:55:01;;;;;;;28.17;16.00;;;;;;;8.11;100.00;97833.63;5025377;28;20092;-59
2023/01/24 09:57:47;;;;;;;28.92;15.90;;;;;;;8.20;100.00;97828.63;5020634;28;20084;-61
2023/01/24 10:00:19;;;;;;;24.63;12.95;;;;;;;7.70;100.00;97837.84;5023549;28;20074;-58
2023/01/24 10:02:48;;;;;;;24.80;14.60;;;;;;;7.83;100.00;97827.44;5014577;28;20073;-57
2023/01/24 10:05:17;;;;;;;30.98;15.70;;;;;;;8.72;100.00;97827.97;5026116;28;20083;-58
2023/01/24 10:08:07;;;;;;;27.33;15.70;;;;;;;8.26;100.00;97823.00;5026353;28;20107;-57
2023/01/24 10:10:45;;;;;;;25.75;15.07;;;;;;;8.50;100.00;97830.31;5026808;28;20557;-61
2023/01/24 10:13:35;;;;;;;26.85;14.13;;;;;;;8.27;100.00;97834.34;5021097;28;20069;-59
2023/01/24 10:16:14;;;;;;;30.10;16.20;;;;;;;7.48;100.00;97830.41;5020741;28;20073;-58
2023/01/24 10:18:53;;;;;;;28.75;14.65;;;;;;;8.71;100.00;97833.34;5015878;28;20488;-54
2023/01/24 10:21:45;;;;;;;31.45;17.63;;;;;;;8.07;100.00;97827.72;5025172;28;20095;-56
2023/01/24 10:24:17;;;;;;;30.83;17.88;;;;;;;7.63;100.00;97836.53;5022693;28;20126;-64
2023/01/24 10:26:48;;;;;;;30.83;16.80;;;;;;;8.44;100.00;97828.91;5021539;28;20073;-59
2023/01/24 10:29:21;;;;;;;31.73;15.40;;;;;;;7.98;100.00;97826.50;5021514;28;20441;-59
2023/01/24 10:31:54;;;;;;;30.48;16.75;;;;;;;8.45;100.00;97824.50;5027260;28;20072;-56
2023/01/24 10:34:29;;;;;;;31.88;16.73;;;;;;;8.50;100.00;97817.16;5024149;28;20099;-58
2023/01/24 10:37:00;;;;;;;33.17;15.95;;;;;;;8.24;100.00;97816.16;5025460;28;20065;-58
2023/01/24 10:39:28;;;;;;;31.73;16.80;;;;;;;8.56;100.00;97816.75;5021331;28;20160;-61
2023/01/24 10:41:57;;;;;;;31.52;17.38;;;;;;;8.19;100.00;97821.72;5024285;28;20081;-61
2023/01/24 10:44:28;;;;;;;31.52;14.70;;;;;;;8.40;100.00;97822.16;5024416;28;20065;-60
2023/01/24 10:47:10;;;;;;;32.40;16.90;;;;;;;8.51;100.00;97810.97;5022705;28;20121;-59
2023/01/24 10:49:41;;;;;;;35.10;18.17;;;;;;;8.90;100.00;97819.81;5027407;28;20072;-60
2023/01/24 10:52:12;;;;;;;32.58;17.95;;;;;;;8.29;100.00;97814.94;5022399;28;20089;-60
2023/01/24 10:54:48;;;;;;;34.35;18.00;;;;;;;8.36;100.00;97815.34;5020277;28;20068;-60
2023/01/24 10:57:39;;;;;;;31.85;17.20;;;;;;;8.42;100.00;97808.91;5013146;28;20069;-59
2023/01/24 11:00:20;;;;;;;;;;;;;;;8.32;100.00;97808.63;5020168;28;20073;-60
2023/01/24 11:02:50;;;;;;;31.17;17.35;;;;;;;7.82;100.00;97810.00;5018898;28;19956;-58
2023/01/24 11:05:20;;;;;;;32.35;17.00;;;;;;;8.86;100.00;97802.56;5021066;28;20078;-56
2023/01/24 11:07:52;;;;;;;31.02;16.15;;;;;;;8.67;100.00;97800.28;5026137;28;20088;-60
2023/01/24 11:10:22;;;;;;;32.70;18.27;;;;;;;7.95;100.00;97802.19;5020342;28;20073;-59
2023/01/24 11:12:53;;;;;;;32.65;17.52;;;;;;;8.31;100.00;97804.31;5025206;28;20076;-59
2023/01/24 11:15:26;;;;;;;34.33;18.88;;;;;;;8.51;100.00;97803.06;5021350;28;20080;-59
2023/01/24 11:17:57;;;;;;;28.50;15.55;;;;;;;8.33;100.00;97800.66;5021119;28;20072;-59
2023/01/24 11:20:28;;;;;;;;;;;;;;;8.58;100.00;97799.09;5023941;28;20085;-58
2023/01/24 11:23:06;;;;;;;34.17;17.35;;;;;;;8.08;100.00;97797.88;5021251;28;19964;-59
2023/01/24 11:25:35;;;;;;;30.15;16.27;;;;;;;8.32;100.00;97801.56;5024793;28;20092;-55
2023/01/24 11:28:04;;;;;;;31.70;16.95;;;;;;;9.04;100.00;97791.66;5013499;28;20092;-60
2023/01/24 11:30:38;;;;;;;25.70;13.98;;;;;;;8.43;100.00;97786.94;5026745;28;20080;-58
2023/01/24 11:33:17;;;;;;;31.20;16.15;;;;;;;8.35;100.00;97799.69;5020101;28;20078;-55
2023/01/24 11:35:47;;;;;;;31.02;16.63;;;;;;;8.46;100.00;97792.00;5029796;28;20084;-57
2023/01/24 11:38:27;;;;;;;28.13;16.63;;;;;;;8.54;100.00;97789.72;5028874;28;20081;-59
2023/01/24 11:41:11;;;;;;;29.92;16.25;;;;;;;8.56;100.00;97780.78;5020486;28;20081;-61
2023/01/24 11:44:13;;;;;;;27.70;14.88;;;;;;;8.54;100.00;97780.06;5045706;28;20107;-57
2023/01/24 11:46:52;;;;;;;24.45;14.48;;;;;;;8.13;100.00;97781.81;5015943;28;20088;-58
2023/01/24 11:49:38;;;;;;;25.60;15.57;;;;;;;8.67;100.00;97780.09;5024874;28;20077;-61
2023/01/24 11:52:21;;;;;;;23.00;11.80;;;;;;;8.77;100.00;97777.69;5019239;28;20456;-52
2023/01/24 11:54:58;;;;;;;26.67;15.70;;;;;;;8.19;100.00;97777.03;5026417;28;20487;-58
2023/01/24 11:57:33;;;;;;;26.00;15.07;;;;;;;8.67;100.00;97769.59;5024070;28;20072;-60
2023/01/24 12:00:17;;;;;;;26.65;15.18;;;;;;;8.87;100.00;97764.78;5030647;28;20472;-57
2023/01/24 12:03:07;;;;;;;24.75;14.93;;;;;;;8.26;100.00;97782.75;5021234;28;20098;-59
2023/01/24 12:05:49;;;;;;;23.37;14.27;;;;;;;8.32;100.00;97770.03;5023195;28;20113;-57
2023/01/24 12:08:27;;;;;;;26.73;14.48;;;;;;;8.76;100.00;97763.69;5026872;28;20068;-52
2023/01/24 12:11:03;;;;;;;26.10;13.98;;;;;;;8.66;100.00;97765.25;5022732;28;20088;-59
2023/01/24 12:14:01;;;;;;;22.88;13.38;;;;;;;9.38;100.00;97755.16;5020208;28;20077;-58